Terminal Aerodrome Forecast
Issued by NWS

Home | Current Version | Previous Version | Graphics & Text | Print | Product List | Glossary On
Versions: 1 2 3 4 5 6 7 8 9 10 11 12 13 14
000
FTUS43 KABR 211949 AAA
TAFMBG
TAF AMD
KMBG 211949Z 2120/2218 32011KT P6SM FEW250
     FM212300 32007KT P6SM FEW250
     FM220200 VRB04KT P6SM FEW250
     FM220900 16008KT P6SM FEW200
     FM221300 19010KT P6SM BKN080=

USA.gov is the U.S. government's official web portal to all federal, state and local government web resources and services.